Time;durP1;ratioP1;P1;durP2;ratioP2;P2;SDS_P1;SDS_P2;PMS_P1;PMS_P2;Temp;Humidity;BMP_temperature;BMP_pressure;BME280_temperature;BME280_humidity;BME280_pressure;Samples;Min_cycle;Max_cycle;Signal;HPM_P1;HPM_P2
2023/12/28 00:00:51;;;;;;;8.30;3.23;;;9.50;99.90;;;;;;4864481;29;20102;-93
2023/12/28 00:03:17;;;;;;;8.43;3.23;;;9.00;99.90;;;;;;4863833;29;20045;-92
2023/12/28 00:05:51;;;;;;;9.57;2.90;;;9.60;99.90;;;;;;4863915;29;20052;-95
2023/12/28 00:08:22;;;;;;;8.93;3.00;;;8.30;99.90;;;;;;4875493;29;20052;-93
2023/12/28 00:10:48;;;;;;;11.97;5.13;;;9.90;99.90;;;;;;4887243;29;20045;-93
2023/12/28 00:13:23;;;;;;;9.17;3.43;;;8.40;99.90;;;;;;4884092;29;20131;-93
2023/12/28 00:15:49;;;;;;;9.20;3.17;;;8.20;99.90;;;;;;4869398;29;20067;-94
2023/12/28 00:18:24;;;;;;;9.70;2.90;;;8.80;99.90;;;;;;4863159;29;20124;-92
2023/12/28 00:20:50;;;;;;;10.40;3.50;;;10.00;99.90;;;;;;4867038;29;20041;-93
2023/12/28 00:23:15;;;;;;;10.37;3.47;;;8.50;99.90;;;;;;4875616;29;20494;-92
2023/12/28 00:25:41;;;;;;;8.53;3.30;;;10.20;99.90;;;;;;4882022;29;20076;-93
2023/12/28 00:28:19;;;;;;;8.23;3.13;;;9.80;99.90;;;;;;4902026;29;20056;-94
2023/12/28 00:30:48;;;;;;;8.73;3.30;;;8.80;99.90;;;;;;4902255;29;20062;-93
2023/12/28 00:33:23;;;;;;;9.47;3.63;;;8.90;99.90;;;;;;4899757;29;20040;-94
2023/12/28 00:36:04;;;;;;;9.67;3.50;;;8.70;99.90;;;;;;4904203;29;20043;-93
2023/12/28 00:38:30;;;;;;;12.37;5.23;;;8.80;99.90;;;;;;4883924;29;20128;-93
2023/12/28 00:40:55;;;;;;;11.23;3.57;;;9.60;99.90;;;;;;4862964;29;20482;-95
2023/12/28 00:43:21;;;;;;;9.50;3.83;;;9.50;99.90;;;;;;4863233;29;20053;-94
2023/12/28 00:46:06;;;;;;;9.63;3.13;;;8.60;99.90;;;;;;4879847;29;20043;-93
2023/12/28 00:48:32;;;;;;;9.47;3.80;;;9.10;99.90;;;;;;4862947;29;20417;-94
2023/12/28 00:51:07;;;;;;;8.43;3.38;;;10.30;99.90;;;;;;4863217;29;20045;-93
2023/12/28 00:53:35;;;;;;;9.85;3.75;;;9.90;99.90;;;;;;4863141;29;20045;-95
2023/12/28 00:56:04;;;;;;;11.23;3.47;;;9.00;99.90;;;;;;4863283;29;20490;-95
2023/12/28 00:58:30;;;;;;;10.37;3.73;;;9.10;99.90;;;;;;4863133;29;20086;-94
2023/12/28 01:00:56;;;;;;;8.73;3.67;;;9.80;99.90;;;;;;4862762;29;20456;-94
2023/12/28 01:06:16;;;;;;;9.43;4.07;;;10.30;99.90;;;;;;4863307;29;20049;-95
2023/12/28 01:09:03;;;;;;;10.18;4.50;;;8.80;99.90;;;;;;4863152;29;20052;-93
2023/12/28 01:11:38;;;;;;;8.30;3.40;;;8.70;99.90;;;;;;4863808;29;20038;-94
2023/12/28 01:14:04;;;;;;;9.75;3.97;;;8.90;99.90;;;;;;4879410;29;20060;-95
2023/12/28 01:16:32;;;;;;;10.00;3.53;;;10.70;99.90;;;;;;4863340;29;20049;-96
2023/12/28 01:18:58;;;;;;;9.53;3.40;;;10.50;99.90;;;;;;4863263;29;20037;-96
2023/12/28 01:21:30;;;;;;;9.23;3.30;;;9.80;99.90;;;;;;4867265;29;20057;-94
2023/12/28 01:23:59;;;;;;;10.30;3.27;;;9.10;99.90;;;;;;4866525;29;20109;-94
2023/12/28 01:26:24;;;;;;;10.13;3.40;;;9.80;99.90;;;;;;4867936;29;20045;-94
2023/12/28 01:28:51;;;;;;;10.77;3.40;;;10.20;99.90;;;;;;4867528;29;20049;-92
2023/12/28 01:31:26;;;;;;;8.17;3.43;;;8.80;99.90;;;;;;4867663;29;20060;-94
2023/12/28 01:33:55;;;;;;;9.40;3.80;;;10.20;99.90;;;;;;4868728;29;20410;-94
2023/12/28 01:36:24;;;;;;;8.77;3.33;;;8.90;99.90;;;;;;4872189;29;20332;-94
2023/12/28 01:38:49;;;;;;;9.30;3.43;;;10.30;99.90;;;;;;4869733;29;20049;-94
2023/12/28 01:41:40;;;;;;;8.60;3.10;;;8.60;99.90;;;;;;4876728;29;20136;-93
2023/12/28 01:44:14;;;;;;;8.53;3.20;;;8.60;99.90;;;;;;4821836;29;20058;-95
2023/12/28 01:46:52;;;;;;;9.63;3.20;;;8.60;99.90;;;;;;4815010;29;20049;-95
2023/12/28 01:49:18;;;;;;;8.87;3.83;;;8.90;99.90;;;;;;4866819;29;20120;-95
2023/12/28 01:52:06;;;;;;;9.37;3.60;;;9.90;99.90;;;;;;4866540;29;20565;-95
2023/12/28 01:54:41;;;;;;;9.00;3.53;;;8.60;99.90;;;;;;4814187;29;20614;-95
2023/12/28 01:57:07;;;;;;;9.37;3.50;;;7.50;99.90;;;;;;4881954;29;20132;-95
2023/12/28 01:59:33;;;;;;;9.07;3.23;;;9.30;99.90;;;;;;4866295;29;20048;-95
2023/12/28 02:02:10;;;;;;;8.87;3.40;;;8.70;99.90;;;;;;4883538;29;20140;-96
2023/12/28 02:04:36;;;;;;;9.37;3.63;;;8.70;99.90;;;;;;4885425;29;20045;-96
2023/12/28 02:07:20;;;;;;;9.00;3.27;;;8.80;99.90;;;;;;4882427;29;20139;-93
2023/12/28 02:10:01;;;;;;;9.32;3.47;;;10.20;99.90;;;;;;4872939;29;20059;-95
2023/12/28 02:12:39;;;;;;;11.40;3.60;;;10.10;99.90;;;;;;4875525;29;20059;-94
2023/12/28 02:15:12;;;;;;;11.67;3.60;;;7.80;99.90;;;;;;4884918;29;20215;-95
2023/12/28 02:18:21;;;;;;;9.13;3.20;;;8.20;99.90;;;;;;4885773;29;20063;-95
2023/12/28 02:20:48;;;;;;;9.53;3.23;;;8.80;99.90;;;;;;4885972;29;20060;-96
2023/12/28 02:23:16;;;;;;;9.63;3.40;;;9.90;99.90;;;;;;4885014;29;20048;-95
2023/12/28 02:25:44;;;;;;;8.53;3.40;;;8.60;99.90;;;;;;4885598;29;20092;-95
2023/12/28 02:28:28;;;;;;;9.33;3.37;;;8.70;99.90;;;;;;4885686;29;20048;-96
2023/12/28 02:31:05;;;;;;;10.30;3.37;;;9.60;99.90;;;;;;4885589;29;20049;-95
2023/12/28 02:33:38;;;;;;;11.07;3.75;;;10.20;99.90;;;;;;4887197;29;20041;-95
2023/12/28 02:36:17;;;;;;;8.97;3.30;;;8.50;99.90;;;;;;4889684;29;20075;-96
2023/12/28 02:38:48;;;;;;;8.93;3.30;;;9.90;99.90;;;;;;4892673;29;20048;-94
2023/12/28 02:41:15;;;;;;;10.63;3.47;;;9.00;99.90;;;;;;4889643;29;20055;-95
2023/12/28 02:43:53;;;;;;;10.77;3.40;;;10.40;99.90;;;;;;4892198;29;20048;-95
2023/12/28 02:46:27;;;;;;;12.03;3.50;;;9.90;99.90;;;;;;4889406;29;20096;-95
2023/12/28 02:49:18;;;;;;;9.10;3.30;;;8.90;99.90;;;;;;4889883;29;20064;-94
2023/12/28 02:51:50;;;;;;;9.93;3.47;;;8.50;99.90;;;;;;4887543;29;20048;-95
2023/12/28 02:54:33;;;;;;;11.60;3.40;;;10.20;99.90;;;;;;4885078;29;20059;-95
2023/12/28 02:56:59;;;;;;;10.18;3.40;;;8.70;99.90;;;;;;4884480;29;20150;-94
2023/12/28 02:59:24;;;;;;;10.20;3.60;;;8.50;99.90;;;;;;4884379;29;20159;-95
2023/12/28 03:01:50;;;;;;;14.07;3.90;;;9.50;99.90;;;;;;4884375;29;20044;-94
2023/12/28 03:04:16;;;;;;;10.50;3.50;;;8.50;99.90;;;;;;4881125;29;20152;-94
2023/12/28 03:06:41;;;;;;;8.30;3.30;;;9.60;99.90;;;;;;4866498;29;20527;-96
2023/12/28 03:09:07;;;;;;;11.47;3.60;;;10.20;99.90;;;;;;4867091;29;20045;-96
2023/12/28 03:11:33;;;;;;;9.10;3.47;;;8.60;99.90;;;;;;4874984;29;20029;-94
2023/12/28 03:13:59;;;;;;;10.07;3.60;;;9.70;99.90;;;;;;4888811;29;20040;-95
2023/12/28 03:16:28;;;;;;;9.77;3.40;;;9.80;99.90;;;;;;4886358;29;20037;-96
2023/12/28 03:19:08;;;;;;;9.82;3.28;;;10.30;99.90;;;;;;4872712;29;20049;-95
2023/12/28 03:21:48;;;;;;;9.83;3.90;;;10.30;99.90;;;;;;4873156;29;20056;-95
2023/12/28 03:24:14;;;;;;;9.70;3.17;;;9.10;99.90;;;;;;4866210;29;20041;-96
2023/12/28 03:26:49;;;;;;;10.13;3.77;;;9.90;99.90;;;;;;4871716;29;20077;-96
2023/12/28 03:29:15;;;;;;;9.60;3.60;;;9.10;99.90;;;;;;4879948;29;20070;-96
2023/12/28 03:31:40;;;;;;;9.33;3.10;;;10.50;99.90;;;;;;4872789;29;20077;-95
2023/12/28 03:34:10;;;;;;;11.98;3.80;;;9.10;99.90;;;;;;4867412;29;20446;-94
2023/12/28 03:36:35;;;;;;;10.50;3.47;;;10.80;99.90;;;;;;4866848;29;20073;-95
2023/12/28 03:39:04;;;;;;;9.37;3.43;;;10.00;99.90;;;;;;4865579;29;20056;-95
2023/12/28 03:41:30;;;;;;;11.33;3.40;;;9.10;99.90;;;;;;4866849;29;20052;-95
2023/12/28 03:44:15;;;;;;;8.33;3.70;;;10.70;99.90;;;;;;4875986;29;20120;-96
2023/12/28 03:46:56;;;;;;;9.37;3.67;;;9.40;99.90;;;;;;4866531;29;20053;-96
2023/12/28 03:49:22;;;;;;;11.98;3.65;;;10.40;99.90;;;;;;4901680;29;20069;-96
2023/12/28 03:51:57;;;;;;;11.52;3.80;;;8.90;99.90;;;;;;4884538;29;20052;-96
2023/12/28 03:54:29;;;;;;;11.15;3.75;;;9.00;99.90;;;;;;4884548;29;20057;-96
2023/12/28 03:57:05;;;;;;;8.73;3.30;;;10.50;99.90;;;;;;4883280;29;20059;-96
2023/12/28 03:59:32;;;;;;;11.90;3.38;;;11.10;99.90;;;;;;4900177;29;20048;-95
2023/12/28 04:01:57;;;;;;;11.73;3.57;;;10.40;99.90;;;;;;4884396;29;20049;-94
2023/12/28 04:04:24;;;;;;;17.33;8.73;;;;;;;;;;4884750;29;20156;-96
2023/12/28 04:06:49;;;;;;;10.35;3.60;;;9.50;99.90;;;;;;4884034;29;20060;-96
2023/12/28 04:09:17;;;;;;;9.48;3.25;;;11.10;99.90;;;;;;4883823;29;20045;-96
2023/12/28 04:11:43;;;;;;;8.30;3.17;;;10.40;99.90;;;;;;4899111;29;20059;-96
2023/12/28 04:14:14;;;;;;;9.30;4.18;;;10.90;99.90;;;;;;4898734;29;20048;-95
2023/12/28 04:16:45;;;;;;;10.60;3.53;;;10.20;99.90;;;;;;4900033;29;20067;-94
2023/12/28 04:19:31;;;;;;;9.20;3.33;;;11.20;99.90;;;;;;4883409;29;20044;-95
2023/12/28 04:21:56;;;;;;;9.00;3.17;;;10.30;99.90;;;;;;4900298;29;20044;-95
2023/12/28 04:24:34;;;;;;;13.73;3.45;;;10.60;99.90;;;;;;4883722;29;20544;-96
2023/12/28 04:27:09;;;;;;;13.25;3.47;;;11.20;99.90;;;;;;4898340;29;20041;-94
2023/12/28 04:29:46;;;;;;;9.32;3.30;;;10.80;99.90;;;;;;4884925;29;20084;-95
2023/12/28 04:32:20;;;;;;;11.77;3.53;;;11.10;99.90;;;;;;4910588;29;20500;-96
2023/12/28 04:34:45;;;;;;;12.32;3.50;;;10.40;99.90;;;;;;4902076;29;20052;-96
2023/12/28 04:37:29;;;;;;;10.02;3.83;;;11.10;99.90;;;;;;4902458;29;20349;-95
2023/12/28 04:40:03;;;;;;;11.27;4.70;;;9.60;99.90;;;;;;4902847;29;20048;-95
2023/12/28 04:42:35;;;;;;;10.07;3.30;;;10.40;99.90;;;;;;4902169;29;20043;-96
2023/12/28 04:45:16;;;;;;;14.35;3.88;;;9.50;99.90;;;;;;4901313;29;20048;-95
2023/12/28 04:48:32;;;;;;;10.63;3.25;;;9.60;99.90;;;;;;4904887;29;20084;-95
2023/12/28 04:51:48;;;;;;;19.75;10.15;;;9.50;99.90;;;;;;4916579;29;20058;-95
2023/12/28 04:57:53;;;;;;;16.27;7.90;;;8.90;99.90;;;;;;4917066;29;20063;-94
2023/12/28 05:00:31;;;;;;;19.00;10.38;;;10.70;99.90;;;;;;4897046;23;20053;-94
2023/12/28 05:02:56;;;;;;;15.00;7.43;;;10.00;99.90;;;;;;4887327;29;20052;-94
2023/12/28 05:05:34;;;;;;;10.43;2.70;;;10.90;99.90;;;;;;4894264;29;20048;-93
2023/12/28 05:08:48;;;;;;;10.43;3.00;;;10.80;99.90;;;;;;4889395;29;20049;-94
2023/12/28 05:11:14;;;;;;;10.63;2.95;;;9.60;99.90;;;;;;4875320;29;20048;-95
2023/12/28 05:13:54;;;;;;;14.80;3.20;;;11.30;99.90;;;;;;4890556;29;20560;-96
2023/12/28 05:16:26;;;;;;;11.02;3.42;;;11.10;99.90;;;;;;4883145;29;20203;-95
2023/12/28 05:19:06;;;;;;;9.23;2.60;;;11.30;99.90;;;;;;4883171;29;20059;-95
2023/12/28 05:21:38;;;;;;;9.63;2.65;;;10.50;99.90;;;;;;4882073;29;20049;-94
2023/12/28 05:24:22;;;;;;;11.35;2.63;;;10.50;99.90;;;;;;4884772;29;20045;-94
2023/12/28 05:26:48;;;;;;;11.40;2.90;;;11.20;99.90;;;;;;4881436;29;20052;-94
2023/12/28 05:29:25;;;;;;;9.15;2.72;;;10.90;99.90;;;;;;4881166;29;20111;-94
2023/12/28 05:31:51;;;;;;;11.63;2.97;;;10.10;99.90;;;;;;4882394;29;20045;-94
2023/12/28 05:34:30;;;;;;;12.02;3.30;;;10.80;99.90;;;;;;4882198;29;20497;-95
2023/12/28 05:36:58;;;;;;;9.93;3.15;;;11.10;99.90;;;;;;4881752;29;20390;-96
2023/12/28 05:39:24;;;;;;;10.00;3.30;;;10.00;99.90;;;;;;4883222;29;20044;-95
2023/12/28 05:42:05;;;;;;;10.25;2.80;;;10.60;99.90;;;;;;4883073;29;20056;-94
2023/12/28 05:44:31;;;;;;;9.13;2.70;;;9.80;99.90;;;;;;4881929;29;20045;-95
2023/12/28 05:47:08;;;;;;;10.52;2.70;;;9.90;99.90;;;;;;4881160;29;20059;-94
2023/12/28 05:49:37;;;;;;;8.52;2.25;;;11.10;99.90;;;;;;4881245;29;20513;-93
2023/12/28 05:52:08;;;;;;;10.77;2.75;;;10.50;99.90;;;;;;4881466;29;20045;-94
2023/12/28 05:54:34;;;;;;;10.25;2.55;;;11.20;99.90;;;;;;4881660;29;20108;-94
2023/12/28 05:57:12;;;;;;;12.75;3.05;;;10.50;99.90;;;;;;4881166;29;20052;-94
2023/12/28 06:00:02;;;;;;;12.88;2.88;;;11.40;99.90;;;;;;4880892;29;20066;-92
2023/12/28 06:02:41;;;;;;;14.10;2.80;;;10.70;99.90;;;;;;4880319;29;20057;-93
2023/12/28 06:05:07;;;;;;;11.90;2.63;;;10.70;99.90;;;;;;4881012;29;20207;-95
2023/12/28 06:07:50;;;;;;;11.20;2.88;;;11.40;99.90;;;;;;4878625;29;20045;-96
2023/12/28 06:10:18;;;;;;;10.90;2.65;;;10.60;99.90;;;;;;4865947;29;20060;-92
2023/12/28 06:12:47;;;;;;;10.07;2.53;;;11.50;99.90;;;;;;4883010;29;20249;-96
2023/12/28 06:15:28;;;;;;;13.75;3.00;;;10.00;99.90;;;;;;4883561;29;20127;-94
2023/12/28 06:17:53;;;;;;;12.48;3.10;;;11.60;99.90;;;;;;4888243;29;20032;-95
2023/12/28 06:20:26;;;;;;;11.77;2.90;;;11.70;99.90;;;;;;4889715;29;20040;-94
2023/12/28 06:22:52;;;;;;;10.20;2.60;;;10.20;99.90;;;;;;4870241;29;20044;-95
2023/12/28 06:25:17;;;;;;;12.57;3.08;;;10.90;99.90;;;;;;4865383;29;20060;-94
2023/12/28 06:27:44;;;;;;;11.30;2.92;;;10.30;99.90;;;;;;4865656;29;20054;-94
2023/12/28 06:30:10;;;;;;;10.57;2.60;;;11.90;99.90;;;;;;4868774;29;20044;-93
2023/12/28 06:32:48;;;;;;;13.05;2.88;;;10.20;99.90;;;;;;4865053;29;20083;-94
2023/12/28 06:35:20;;;;;;;16.33;2.70;;;11.50;99.90;;;;;;4880443;29;20136;-94
2023/12/28 06:37:57;;;;;;;16.52;3.20;;;11.00;99.90;;;;;;4866091;29;20112;-93
2023/12/28 06:40:29;;;;;;;14.32;2.75;;;11.00;99.90;;;;;;4865597;29;20041;-95
2023/12/28 06:42:54;;;;;;;13.65;2.80;;;11.80;99.90;;;;;;4869236;29;20092;-95
2023/12/28 06:45:29;;;;;;;15.25;2.55;;;11.40;99.90;;;;;;4865469;29;20072;-93
2023/12/28 06:48:13;;;;;;;12.70;3.03;;;11.40;99.90;;;;;;4869495;29;20053;-93
2023/12/28 06:50:39;;;;;;;15.73;3.17;;;10.40;99.90;;;;;;4867210;29;20048;-94
2023/12/28 06:53:24;;;;;;;10.07;2.72;;;11.50;99.90;;;;;;4864890;29;20053;-92
2023/12/28 06:55:59;;;;;;;12.05;2.33;;;10.40;99.90;;;;;;4867678;29;20045;-92
2023/12/28 06:58:27;;;;;;;12.60;2.35;;;10.30;99.90;;;;;;4867448;29;20088;-92
2023/12/28 07:00:54;;;;;;;15.15;2.63;;;11.80;99.90;;;;;;4863929;29;20045;-89
2023/12/28 07:03:35;;;;;;;11.18;2.67;;;11.50;99.90;;;;;;4865531;29;20053;-91
2023/12/28 07:06:03;;;;;;;10.05;2.47;;;10.50;99.90;;;;;;4865040;29;20055;-93
2023/12/28 07:08:32;;;;;;;11.25;2.47;;;10.50;99.90;;;;;;4864103;29;20051;-93
2023/12/28 07:11:03;;;;;;;12.77;2.63;;;11.60;99.90;;;;;;4865184;29;20057;-93
2023/12/28 07:13:29;;;;;;;12.90;2.50;;;9.90;99.90;;;;;;4864807;29;20060;-94
2023/12/28 07:16:04;;;;;;;14.55;2.70;;;12.00;99.90;;;;;;4863962;29;20116;-95
2023/12/28 07:18:39;;;;;;;15.63;2.92;;;10.40;99.90;;;;;;4864256;29;20045;-88
2023/12/28 07:21:11;;;;;;;12.43;2.67;;;11.90;99.90;;;;;;4868222;29;20100;-90
2023/12/28 07:23:51;;;;;;;12.65;2.53;;;11.20;99.90;;;;;;4880316;29;20135;-90
2023/12/28 07:26:17;;;;;;;16.02;2.53;;;11.30;99.90;;;;;;4883166;29;20103;-90
2023/12/28 07:28:56;;;;;;;13.43;2.53;;;11.90;99.90;;;;;;4883807;29;20044;-93
2023/12/28 07:32:14;;;;;;;12.00;2.40;;;10.40;99.90;;;;;;4910590;23;20063;-90
2023/12/28 07:35:05;;;;;;;13.18;2.60;;;10.50;99.90;;;;;;4919923;29;20087;-89
2023/12/28 07:37:37;;;;;;;11.98;2.47;;;10.50;99.90;;;;;;4901019;29;20087;-89
2023/12/28 07:40:15;;;;;;;10.85;2.65;;;9.50;99.90;;;;;;4900649;29;20051;-89
2023/12/28 07:42:47;;;;;;;14.07;2.90;;;10.50;99.90;;;;;;4900374;29;20048;-89
2023/12/28 07:45:38;;;;;;;11.93;2.65;;;10.70;99.90;;;;;;4900963;29;20150;-88
2023/12/28 07:48:30;;;;;;;13.68;3.10;;;9.70;99.90;;;;;;4901583;29;20132;-89
2023/12/28 07:51:05;;;;;;;11.27;2.53;;;10.30;99.90;;;;;;4902569;29;20047;-88
2023/12/28 07:53:31;;;;;;;12.50;2.88;;;10.60;99.90;;;;;;4901056;29;20374;-88
2023/12/28 07:56:12;;;;;;;14.97;2.83;;;10.60;99.90;;;;;;4899644;29;20054;-87
2023/12/28 07:58:57;;;;;;;11.38;2.58;;;10.60;99.90;;;;;;4901456;29;20079;-83
2023/12/28 08:01:23;;;;;;;10.87;2.37;;;10.40;99.90;;;;;;4909809;29;20044;-87
2023/12/28 08:11:38;;;;;;;10.85;2.40;;;10.10;99.90;;;;;;4904838;23;20147;-92
2023/12/28 08:19:32;;;;;;;13.30;2.38;;;10.70;99.90;;;;;;4925349;23;20065;-93
2023/12/28 08:25:10;;;;;;;10.13;2.08;;;10.80;99.90;;;;;;4878116;23;20048;-91
2023/12/28 08:27:48;;;;;;;13.43;2.63;;;10.80;99.90;;;;;;4881645;29;20095;-90
2023/12/28 08:31:08;;;;;;;21.80;6.35;;;11.60;99.90;;;;;;4880914;29;20041;-91
2023/12/28 08:33:53;;;;;;;12.27;3.38;;;10.00;99.90;;;;;;4885013;29;20467;-92
2023/12/28 08:36:28;;;;;;;13.73;2.88;;;10.70;99.90;;;;;;4882319;29;20059;-91
2023/12/28 08:42:45;;;;;;;;;;;;;;;;;;;;;
2023/12/28 08:49:33;;;;;;;12.40;2.80;;;11.00;99.90;;;;;;4776013;30;20556;-90
2023/12/28 08:52:10;;;;;;;14.52;2.65;;;12.30;99.90;;;;;;4770228;30;20074;-89
2023/12/28 08:54:46;;;;;;;;;;;;;;;;;;;;;
2023/12/28 08:58:21;;;;;;;11.93;2.70;;;10.90;99.90;;;;;;4825511;29;20066;-88
2023/12/28 09:01:11;;;;;;;14.23;2.60;;;11.00;99.90;;;;;;4824734;29;20467;-87
2023/12/28 09:03:37;;;;;;;10.85;2.55;;;10.80;99.90;;;;;;4825426;29;20483;-87
2023/12/28 09:06:03;;;;;;;17.80;3.00;;;12.00;99.90;;;;;;4825532;29;20073;-87
2023/12/28 09:08:29;;;;;;;11.38;2.15;;;10.80;99.90;;;;;;4824781;29;20054;-87
2023/12/28 09:11:07;;;;;;;21.10;3.00;;;10.80;99.90;;;;;;4825653;29;20050;-86
2023/12/28 09:13:32;;;;;;;12.40;2.25;;;10.90;99.90;;;;;;4841497;29;20050;-86
2023/12/28 09:16:23;;;;;;;13.23;2.75;;;12.20;99.90;;;;;;4847325;29;20436;-86
2023/12/28 09:19:01;;;;;;;16.40;3.97;;;11.70;99.90;;;;;;4827964;29;20054;-87
2023/12/28 09:21:27;;;;;;;11.85;2.22;;;12.50;99.90;;;;;;4825176;29;20038;-87
2023/12/28 09:23:59;;;;;;;20.10;3.50;;;10.90;99.90;;;;;;4907695;23;20050;-87
2023/12/28 09:27:18;;;;;;;19.27;4.07;;;11.90;99.90;;;;;;4880580;29;20052;-87
2023/12/28 09:29:44;;;;;;;17.40;3.08;;;10.50;99.90;;;;;;4895946;29;20057;-88
2023/12/28 09:32:30;;;;;;;11.98;3.03;;;11.40;99.90;;;;;;4886490;23;20124;-87
2023/12/28 09:35:14;;;;;;;17.77;3.17;;;11.00;99.90;;;;;;4885646;23;20523;-87
2023/12/28 09:37:49;;;;;;;11.05;2.17;;;12.30;99.90;;;;;;4880320;29;20057;-87
2023/12/28 09:52:51;;;;;;;11.23;2.67;;;11.00;99.90;;;;;;4985111;23;20132;-88
2023/12/28 09:55:17;;;;;;;12.27;2.30;;;10.10;99.90;;;;;;4884452;29;20048;-86
2023/12/28 09:57:47;;;;;;;14.85;3.22;;;10.00;99.90;;;;;;4883147;29;20048;-88
2023/12/28 10:04:42;;;;;;;16.35;2.83;;;11.30;99.90;;;;;;4888294;23;20117;-87
2023/12/28 10:07:15;;;;;;;16.27;2.92;;;10.30;99.90;;;;;;4864655;29;20053;-86
2023/12/28 10:09:51;;;;;;;15.93;3.00;;;11.00;99.90;;;;;;4864858;29;20132;-85
2023/12/28 10:12:32;;;;;;;16.33;3.05;;;11.00;99.90;;;;;;4865333;29;20041;-84
2023/12/28 10:14:58;;;;;;;15.90;2.85;;;10.90;99.90;;;;;;4879858;29;20052;-84
2023/12/28 10:17:24;;;;;;;15.82;2.60;;;12.20;99.90;;;;;;4880929;29;20052;-85
2023/12/28 10:19:49;;;;;;;15.15;3.05;;;10.90;99.90;;;;;;4864991;29;20065;-85
2023/12/28 10:22:15;;;;;;;18.23;2.97;;;10.90;99.90;;;;;;4864920;29;20045;-87
2023/12/28 10:24:42;;;;;;;16.20;3.38;;;12.50;99.90;;;;;;4875614;23;20045;-86
2023/12/28 10:27:08;;;;;;;14.52;3.03;;;10.90;99.90;;;;;;4899697;29;20053;-88
2023/12/28 10:30:05;;;;;;;16.48;4.13;;;11.00;99.90;;;;;;4883920;29;21565;-89
2023/12/28 10:32:49;;;;;;;15.98;3.13;;;11.50;99.90;;;;;;4881394;29;20445;-92
2023/12/28 10:35:15;;;;;;;11.20;2.83;;;12.40;99.90;;;;;;4881906;29;20450;-87
2023/12/28 10:37:42;;;;;;;15.00;2.67;;;11.60;99.90;;;;;;4882456;29;20095;-86
2023/12/28 10:40:21;;;;;;;13.25;2.38;;;10.90;99.90;;;;;;4882359;29;20045;-86
2023/12/28 10:43:04;;;;;;;16.05;3.38;;;11.90;99.90;;;;;;4883036;29;20047;-86
2023/12/28 10:45:50;;;;;;;14.13;2.60;;;10.90;99.90;;;;;;4882090;29;20088;-87
2023/12/28 10:48:24;;;;;;;13.80;2.45;;;12.40;99.90;;;;;;4882769;29;20056;-86
2023/12/28 10:50:52;;;;;;;12.27;3.08;;;10.80;99.90;;;;;;4920796;23;20060;-86
2023/12/28 10:53:36;;;;;;;11.33;2.53;;;12.00;99.90;;;;;;4918662;29;20048;-87
2023/12/28 10:56:21;;;;;;;;;;;10.90;99.90;;;;;;4937383;29;20051;-87
2023/12/28 10:58:54;;;;;;;;;;;10.90;99.90;;;;;;4920066;29;20069;-86
2023/12/28 11:01:31;;;;;;;14.10;2.53;;;10.90;99.90;;;;;;4919781;29;20316;-86
2023/12/28 11:04:33;;;;;;;10.80;2.20;;;10.90;99.90;;;;;;4936287;29;20401;-86
2023/12/28 11:07:01;;;;;;;14.32;2.90;;;10.90;99.90;;;;;;4919324;29;20414;-86
2023/12/28 11:09:31;;;;;;;9.05;2.28;;;10.80;99.90;;;;;;4920192;29;20036;-87
2023/12/28 11:12:18;;;;;;;13.90;2.53;;;11.50;99.90;;;;;;4919854;29;20035;-86
2023/12/28 11:14:46;;;;;;;14.18;2.25;;;12.20;99.90;;;;;;4919581;29;20044;-86
2023/12/28 11:23:46;;;;;;;15.00;2.78;;;11.00;99.90;;;;;;4881617;29;20136;-86
2023/12/28 11:38:34;;;;;;;7.70;1.60;;;10.50;99.90;;;;;;4877305;29;20053;-85
2023/12/28 11:44:51;;;;;;;9.95;2.10;;;10.70;99.90;;;;;;4969499;23;20059;-87
2023/12/28 11:47:21;;;;;;;17.40;2.97;;;11.70;99.90;;;;;;4882048;29;20413;-83
2023/12/28 11:52:49;;;;;;;16.17;2.92;;;11.00;99.90;;;;;;4948070;23;20112;-81
2023/12/28 11:55:23;;;;;;;12.10;2.70;;;10.90;99.90;;;;;;4880561;29;20090;-81
2023/12/28 11:57:55;;;;;;;15.90;2.90;;;12.50;99.90;;;;;;4881573;29;20100;-81
2023/12/28 12:01:16;;;;;;;15.60;2.60;;;11.80;99.90;;;;;;4881217;29;20055;-81
2023/12/28 12:09:59;;;;;;;13.65;2.42;;;10.80;99.90;;;;;;5890527;23;20083;-84
2023/12/28 12:12:25;;;;;;;13.10;2.50;;;10.80;99.90;;;;;;4896350;29;20092;-84
2023/12/28 12:14:51;;;;;;;15.23;2.55;;;10.70;99.90;;;;;;4895586;29;20512;-85
2023/12/28 12:17:18;;;;;;;9.95;2.17;;;10.70;99.90;;;;;;4877531;29;20057;-84
2023/12/28 12:19:45;;;;;;;13.63;2.47;;;10.70;99.90;;;;;;4878842;29;20044;-84
2023/12/28 12:22:12;;;;;;;12.30;2.75;;;11.30;99.90;;;;;;4880377;29;20044;-84
2023/12/28 12:24:39;;;;;;;9.07;2.03;;;11.90;99.90;;;;;;4878958;29;20055;-85
2023/12/28 12:27:20;;;;;;;14.35;3.05;;;10.60;99.90;;;;;;4880449;29;20048;-85
2023/12/28 12:29:45;;;;;;;10.25;2.55;;;11.30;99.90;;;;;;4879518;29;20044;-86
2023/12/28 12:32:17;;;;;;;25.38;8.38;;;10.50;99.90;;;;;;4878706;29;20374;-85
2023/12/28 12:34:43;;;;;;;11.07;2.65;;;10.50;99.90;;;;;;4895780;29;20756;-85
2023/12/28 12:37:09;;;;;;;12.60;4.30;;;12.00;99.90;;;;;;4895631;29;20124;-85
2023/12/28 12:39:36;;;;;;;11.43;2.28;;;10.50;99.90;;;;;;4880471;29;20060;-83
2023/12/28 12:42:04;;;;;;;13.70;2.10;;;11.50;99.90;;;;;;4876006;29;20193;-86
2023/12/28 12:44:30;;;;;;;18.80;2.55;;;10.60;99.90;;;;;;4877609;29;20071;-84
2023/12/28 12:46:58;;;;;;;12.77;2.45;;;11.60;99.90;;;;;;4880523;29;20072;-84
2023/12/28 12:49:24;;;;;;;13.23;2.17;;;12.10;99.90;;;;;;4880436;29;20064;-84
2023/12/28 12:52:07;;;;;;;14.50;2.28;;;11.60;99.90;;;;;;4878641;29;20052;-84
2023/12/28 12:54:40;;;;;;;11.68;2.55;;;11.70;99.90;;;;;;4880350;29;20049;-84
2023/12/28 12:57:06;;;;;;;12.90;2.43;;;11.90;99.90;;;;;;4880084;29;20104;-84
2023/12/28 12:59:44;;;;;;;13.80;2.55;;;10.60;99.90;;;;;;4879639;29;20131;-86
2023/12/28 13:02:10;;;;;;;13.68;2.70;;;11.50;99.90;;;;;;4877971;29;20045;-84
2023/12/28 13:04:38;;;;;;;13.18;2.45;;;10.70;99.90;;;;;;4880114;29;20047;-84
2023/12/28 13:07:07;;;;;;;18.85;3.05;;;12.20;99.90;;;;;;4878701;29;20489;-85
2023/12/28 13:09:32;;;;;;;15.02;2.75;;;10.80;99.90;;;;;;4880057;29;20433;-85
2023/12/28 13:12:05;;;;;;;10.25;2.17;;;12.20;99.90;;;;;;4880049;29;20076;-85
2023/12/28 13:14:44;;;;;;;17.55;3.13;;;11.10;99.90;;;;;;4880230;29;20120;-86
2023/12/28 13:17:10;;;;;;;11.63;2.33;;;12.30;99.90;;;;;;4898540;29;20128;-86
2023/12/28 13:19:36;;;;;;;11.95;2.53;;;11.70;99.90;;;;;;4884323;29;20044;-86
2023/12/28 13:22:02;;;;;;;13.77;2.85;;;11.00;99.90;;;;;;4884645;29;20377;-86
2023/12/28 13:24:28;;;;;;;16.23;2.83;;;10.90;99.90;;;;;;4899902;29;20401;-86
2023/12/28 13:26:53;;;;;;;17.50;3.28;;;12.20;99.90;;;;;;4899003;29;20051;-86
2023/12/28 13:29:19;;;;;;;16.98;3.30;;;11.00;99.90;;;;;;4901317;29;20045;-86
2023/12/28 13:31:45;;;;;;;14.60;3.13;;;12.00;99.90;;;;;;4901014;29;20097;-85
2023/12/28 13:34:11;;;;;;;17.45;3.72;;;10.90;99.90;;;;;;4898579;29;20043;-86
2023/12/28 13:36:37;;;;;;;17.63;3.72;;;12.20;99.90;;;;;;4884605;29;20401;-86
2023/12/28 13:39:03;;;;;;;14.13;3.10;;;10.90;99.90;;;;;;4883994;29;20052;-86
2023/12/28 13:41:28;;;;;;;14.48;3.35;;;11.00;99.90;;;;;;4883922;29;20044;-86
2023/12/28 13:44:12;;;;;;;15.93;3.22;;;11.60;99.90;;;;;;4883815;29;20511;-86
2023/12/28 13:55:23;;;;;;;16.00;3.42;;;10.80;99.90;;;;;;4880992;29;20112;-87
2023/12/28 13:57:48;;;;;;;13.77;2.58;;;10.80;99.90;;;;;;4865331;29;20065;-86
2023/12/28 14:00:15;;;;;;;15.30;3.33;;;10.90;99.90;;;;;;4867267;29;20049;-86
2023/12/28 14:02:40;;;;;;;13.95;3.10;;;10.80;99.90;;;;;;4864560;29;20077;-85
2023/12/28 14:05:19;;;;;;;21.05;3.00;;;11.10;99.90;;;;;;4864900;29;20057;-86
2023/12/28 14:07:50;;;;;;;15.60;3.15;;;10.80;99.90;;;;;;4865136;29;20049;-86
2023/12/28 14:10:16;;;;;;;15.55;3.80;;;12.00;99.90;;;;;;4864745;29;20049;-86
2023/12/28 14:12:44;;;;;;;14.32;3.03;;;12.20;99.90;;;;;;4882071;29;20053;-86
2023/12/28 14:15:10;;;;;;;16.52;3.33;;;10.80;99.90;;;;;;4865341;29;20053;-86
2023/12/28 14:17:35;;;;;;;18.65;3.25;;;11.70;99.90;;;;;;4864234;29;20485;-85
2023/12/28 14:20:02;;;;;;;14.70;3.75;;;10.80;99.90;;;;;;4850726;29;20490;-86
2023/12/28 14:22:28;;;;;;;15.52;3.10;;;10.70;99.90;;;;;;4860654;29;20045;-86
2023/12/28 14:24:54;;;;;;;14.57;2.92;;;10.80;99.90;;;;;;4846019;29;20080;-86
2023/12/28 14:27:20;;;;;;;16.05;3.10;;;10.70;99.90;;;;;;4845343;29;20048;-86
2023/12/28 14:29:46;;;;;;;14.20;2.83;;;10.70;99.90;;;;;;4845565;29;20136;-86
2023/12/28 14:32:12;;;;;;;16.02;3.47;;;10.70;99.90;;;;;;4846733;29;20053;-86
2023/12/28 14:34:38;;;;;;;14.93;3.17;;;10.70;99.90;;;;;;4846426;29;20045;-86
2023/12/28 14:37:04;;;;;;;14.15;2.60;;;10.70;99.90;;;;;;4844751;29;20076;-86
2023/12/28 14:39:29;;;;;;;12.95;3.03;;;11.20;99.90;;;;;;4846384;29;20071;-86
2023/12/28 14:41:55;;;;;;;14.20;3.80;;;10.70;99.90;;;;;;4845820;29;20049;-86
2023/12/28 14:44:20;;;;;;;17.48;3.22;;;11.60;99.90;;;;;;4845560;29;20434;-86